Time;durP1;ratioP1;P1;durP2;ratioP2;P2;SDS_P1;SDS_P2;PMS_P1;PMS_P2;Temp;Humidity;BMP_temperature;BMP_pressure;BME280_temperature;BME280_humidity;BME280_pressure;Samples;Min_cycle;Max_cycle;Signal;HPM_P1;HPM_P2
2022/02/14 00:01:02;;;;;;;19.00;16.10;;;1.80;84.00;;;;;;6300422;28;20476;-62
2022/02/14 00:04:05;;;;;;;19.20;15.73;;;1.80;83.90;;;;;;6300501;28;20487;-63
2022/02/14 00:07:08;;;;;;;21.17;16.13;;;1.70;84.30;;;;;;6299899;28;20469;-63
2022/02/14 00:10:11;;;;;;;21.70;15.90;;;1.70;84.70;;;;;;6299997;28;20531;-62
2022/02/14 00:13:16;;;;;;;16.30;14.60;;;1.70;85.10;;;;;;6300003;28;20470;-62
2022/02/14 00:16:19;;;;;;;23.57;16.93;;;1.60;85.20;;;;;;6299265;28;20470;-62
2022/02/14 00:19:22;;;;;;;19.17;16.40;;;1.60;85.60;;;;;;6299754;28;20470;-62
2022/02/14 00:22:25;;;;;;;19.37;16.43;;;1.60;85.80;;;;;;6300449;28;20500;-63
2022/02/14 00:25:28;;;;;;;19.90;16.27;;;1.60;85.90;;;;;;6302373;28;20929;-63
2022/02/14 00:28:32;;;;;;;21.30;16.70;;;1.60;85.80;;;;;;6306296;28;20474;-63
2022/02/14 00:31:36;;;;;;;20.53;14.37;;;1.60;86.60;;;;;;6304887;28;20856;-62
2022/02/14 00:34:39;;;;;;;20.73;16.00;;;1.60;86.00;;;;;;6304720;28;20469;-62
2022/02/14 00:37:43;;;;;;;21.47;15.27;;;1.60;85.60;;;;;;6304346;28;20488;-62
2022/02/14 00:40:46;;;;;;;20.87;14.70;;;1.60;85.70;;;;;;6304962;28;20481;-63
2022/02/14 00:43:51;;;;;;;20.70;15.50;;;1.50;86.10;;;;;;6304852;28;20481;-63
2022/02/14 00:46:54;;;;;;;22.43;16.00;;;1.50;87.00;;;;;;6304117;28;20518;-63
2022/02/14 00:49:57;;;;;;;16.13;13.90;;;1.50;87.10;;;;;;6303899;28;20480;-63
2022/02/14 00:53:00;;;;;;;18.60;14.23;;;1.40;87.00;;;;;;6304349;28;20481;-61
2022/02/14 00:56:04;;;;;;;23.73;15.43;;;1.40;87.40;;;;;;6303775;28;20473;-62
2022/02/14 00:59:08;;;;;;;20.60;15.80;;;1.40;87.40;;;;;;6304956;28;20473;-62
2022/02/14 01:02:11;;;;;;;14.47;12.93;;;1.40;86.90;;;;;;6303207;28;20480;-62
2022/02/14 01:05:15;;;;;;;18.97;15.80;;;1.40;87.00;;;;;;6303797;28;20530;-62
2022/02/14 01:08:18;;;;;;;16.90;14.63;;;1.30;87.00;;;;;;6304974;28;20478;-62
2022/02/14 01:11:21;;;;;;;18.93;14.80;;;1.30;87.30;;;;;;6305199;28;20484;-62
2022/02/14 01:14:27;;;;;;;18.40;14.80;;;1.30;87.40;;;;;;6304223;28;20562;-63
2022/02/14 01:17:30;;;;;;;16.20;13.30;;;1.30;87.40;;;;;;6305088;28;20481;-63
2022/02/14 01:20:33;;;;;;;17.53;14.50;;;1.20;87.30;;;;;;6303610;28;20480;-63
2022/02/14 01:23:36;;;;;;;15.90;13.80;;;1.20;87.90;;;;;;6299783;28;20469;-64
2022/02/14 01:26:42;;;;;;;15.00;13.40;;;1.20;88.00;;;;;;6304934;28;20465;-63
2022/02/14 01:29:46;;;;;;;17.43;14.37;;;1.10;87.40;;;;;;6303207;28;20477;-62
2022/02/14 01:32:49;;;;;;;17.63;13.50;;;1.20;88.20;;;;;;6302676;28;20485;-63
2022/02/14 01:35:52;;;;;;;21.50;14.90;;;1.20;88.50;;;;;;6302312;28;20484;-64
2022/02/14 01:38:55;;;;;;;18.00;14.50;;;1.10;88.50;;;;;;6301354;28;20965;-62
2022/02/14 01:41:59;;;;;;;19.77;14.70;;;1.00;88.70;;;;;;6302449;28;20477;-62
2022/02/14 01:45:04;;;;;;;16.03;12.77;;;1.00;88.90;;;;;;6302001;28;20507;-62
2022/02/14 01:48:07;;;;;;;15.27;12.80;;;1.00;89.90;;;;;;6302288;28;20776;-62
2022/02/14 01:51:10;;;;;;;17.23;12.80;;;1.00;89.10;;;;;;6303704;28;20527;-63
2022/02/14 01:54:13;;;;;;;16.50;13.90;;;1.00;89.00;;;;;;6302234;28;20478;-62
2022/02/14 01:57:18;;;;;;;15.60;13.90;;;1.00;88.90;;;;;;6301954;28;20473;-62
2022/02/14 02:00:25;;;;;;;19.30;14.13;;;0.90;88.90;;;;;;6302239;28;20473;-63
2022/02/14 02:03:28;;;;;;;19.27;14.47;;;0.80;88.90;;;;;;6301944;28;20898;-62
2022/02/14 02:06:32;;;;;;;15.97;13.97;;;0.70;89.40;;;;;;6301528;28;20965;-62
2022/02/14 02:09:37;;;;;;;14.57;12.97;;;0.70;89.60;;;;;;6302509;28;20477;-62
2022/02/14 02:12:50;;;;;;;14.87;12.50;;;0.70;90.00;;;;;;6301376;28;20773;-62
2022/02/14 02:15:54;;;;;;;17.13;13.87;;;0.60;90.20;;;;;;6301912;28;20418;-63
2022/02/14 02:18:57;;;;;;;15.20;11.70;;;0.60;90.50;;;;;;6301352;28;20886;-62
2022/02/14 02:22:01;;;;;;;14.23;12.73;;;0.60;90.60;;;;;;6301921;28;20461;-64
2022/02/14 02:25:07;;;;;;;15.07;11.60;;;0.60;90.70;;;;;;6301269;28;20469;-63
2022/02/14 02:28:10;;;;;;;13.97;11.87;;;0.70;90.70;;;;;;6301983;28;20485;-63
2022/02/14 02:31:13;;;;;;;18.00;13.63;;;0.70;90.70;;;;;;6301247;28;20478;-63
2022/02/14 02:34:16;;;;;;;15.00;13.03;;;0.70;90.70;;;;;;6301413;28;20761;-61
2022/02/14 02:37:20;;;;;;;16.27;13.80;;;0.70;90.70;;;;;;6301541;28;20473;-62
2022/02/14 02:40:24;;;;;;;17.07;13.80;;;0.60;90.40;;;;;;6300895;28;20470;-62
2022/02/14 02:43:29;;;;;;;13.07;11.57;;;0.60;90.70;;;;;;6301117;28;20473;-62
2022/02/14 02:46:32;;;;;;;13.07;11.63;;;0.60;90.80;;;;;;6300733;28;20474;-62
2022/02/14 02:49:35;;;;;;;18.43;13.50;;;0.50;90.90;;;;;;6300527;28;20474;-62
2022/02/14 02:52:38;;;;;;;17.47;13.13;;;0.50;90.90;;;;;;6300301;28;20489;-62
2022/02/14 02:55:43;;;;;;;17.77;15.20;;;0.50;90.90;;;;;;6300809;28;20468;-62
2022/02/14 02:58:46;;;;;;;16.80;14.57;;;0.50;90.90;;;;;;6300468;28;20484;-62
2022/02/14 03:01:49;;;;;;;20.70;14.63;;;0.50;90.90;;;;;;6300684;28;21010;-62
2022/02/14 03:04:52;;;;;;;16.93;13.83;;;0.50;91.30;;;;;;6300765;28;20531;-63
2022/02/14 03:07:55;;;;;;;15.40;13.30;;;0.50;90.90;;;;;;6302396;28;20887;-63
2022/02/14 03:11:00;;;;;;;17.97;14.97;;;0.40;90.90;;;;;;6301600;28;20985;-63
2022/02/14 03:14:03;;;;;;;16.93;13.50;;;0.40;91.00;;;;;;6299839;28;20504;-62
2022/02/14 03:17:09;;;;;;;19.00;13.30;;;0.30;90.90;;;;;;6301368;28;20484;-62
2022/02/14 03:20:13;;;;;;;17.23;11.90;;;0.20;91.20;;;;;;6301240;28;20476;-62
2022/02/14 03:23:16;;;;;;;13.77;12.40;;;0.10;91.60;;;;;;6300846;28;20478;-62
2022/02/14 03:26:22;;;;;;;19.93;13.27;;;0.10;91.60;;;;;;6300056;28;20473;-62
2022/02/14 03:29:27;;;;;;;16.83;12.73;;;0.10;92.00;;;;;;6300137;28;20470;-62
2022/02/14 03:32:30;;;;;;;16.87;13.87;;;0.10;91.90;;;;;;6300043;28;20484;-63
2022/02/14 03:35:33;;;;;;;18.50;12.67;;;0.10;92.00;;;;;;6300308;28;20789;-63
2022/02/14 03:38:36;;;;;;;16.53;13.63;;;0.10;92.00;;;;;;6299848;28;20488;-63
2022/02/14 03:41:41;;;;;;;15.30;12.50;;;0.00;92.10;;;;;;6300228;28;20469;-63
2022/02/14 03:44:44;;;;;;;13.73;12.30;;;0.10;92.10;;;;;;6299202;28;20527;-62
2022/02/14 03:47:47;;;;;;;16.37;12.80;;;0.00;91.90;;;;;;6299756;28;20484;-62
2022/02/14 03:50:50;;;;;;;15.57;13.40;;;0.00;92.10;;;;;;6299974;28;20693;-62
2022/02/14 03:53:53;;;;;;;22.10;13.00;;;-0.10;92.10;;;;;;6299623;28;20530;-63
2022/02/14 03:56:57;;;;;;;17.97;14.90;;;-0.10;92.20;;;;;;6299819;28;20535;-63
2022/02/14 04:00:01;;;;;;;19.63;13.57;;;-0.10;92.30;;;;;;6300271;28;20466;-63
2022/02/14 04:03:04;;;;;;;16.57;13.57;;;-0.10;92.40;;;;;;6305950;28;20488;-63
2022/02/14 04:06:07;;;;;;;16.07;12.73;;;-0.10;92.50;;;;;;6306191;28;20492;-62
2022/02/14 04:09:10;;;;;;;24.53;15.10;;;-0.20;92.30;;;;;;6306216;28;20526;-63
2022/02/14 04:12:15;;;;;;;15.40;13.70;;;-0.20;92.60;;;;;;6304962;28;20495;-63
2022/02/14 04:15:18;;;;;;;14.90;12.53;;;-0.20;92.60;;;;;;6305690;28;20478;-64
2022/02/14 04:18:21;;;;;;;19.80;14.87;;;-0.20;92.70;;;;;;6305283;28;20488;-62
2022/02/14 04:21:24;;;;;;;17.60;13.57;;;-0.20;92.90;;;;;;6305807;28;20534;-62
2022/02/14 04:24:27;;;;;;;14.47;12.40;;;-0.20;92.90;;;;;;6306427;28;20797;-63
2022/02/14 04:27:31;;;;;;;16.47;13.30;;;-0.20;92.80;;;;;;6304244;28;20477;-62
2022/02/14 04:30:35;;;;;;;14.70;12.90;;;-0.30;92.70;;;;;;6304786;28;21051;-62
2022/02/14 04:33:38;;;;;;;18.30;13.53;;;-0.30;92.50;;;;;;6304134;28;20551;-62
2022/02/14 04:36:41;;;;;;;17.57;12.47;;;-0.30;92.50;;;;;;6304169;28;20531;-62
2022/02/14 04:39:44;;;;;;;17.20;14.00;;;-0.30;92.50;;;;;;6303942;28;20465;-63
2022/02/14 04:42:49;;;;;;;15.67;11.97;;;-0.30;92.50;;;;;;6303805;28;20454;-63
2022/02/14 04:45:52;;;;;;;21.00;14.20;;;-0.30;92.50;;;;;;6304063;28;20485;-62
2022/02/14 04:48:55;;;;;;;20.40;14.90;;;-0.30;92.50;;;;;;6303945;28;20785;-62
2022/02/14 04:51:58;;;;;;;19.80;14.07;;;-0.30;92.50;;;;;;6303769;28;20473;-62
2022/02/14 04:55:01;;;;;;;16.93;14.80;;;-0.40;92.50;;;;;;6303783;28;20506;-63
2022/02/14 04:58:06;;;;;;;19.27;13.60;;;-0.40;92.50;;;;;;6304166;28;20924;-63
2022/02/14 05:01:09;;;;;;;23.80;16.20;;;-0.40;92.70;;;;;;6303518;28;20460;-63
2022/02/14 05:04:12;;;;;;;16.13;13.43;;;-0.40;92.60;;;;;;6303410;28;20480;-62
2022/02/14 05:07:16;;;;;;;21.17;15.30;;;-0.40;92.50;;;;;;6303180;28;20469;-62
2022/02/14 05:10:20;;;;;;;16.80;13.67;;;-0.40;92.50;;;;;;6303243;28;20461;-62
2022/02/14 05:13:25;;;;;;;19.87;13.90;;;-0.50;92.70;;;;;;6303070;28;20490;-63
2022/02/14 05:16:28;;;;;;;20.90;13.60;;;-0.50;93.20;;;;;;6303011;28;20976;-64
2022/02/14 05:19:31;;;;;;;20.80;13.50;;;-0.50;93.10;;;;;;6303545;28;20480;-63
2022/02/14 05:22:34;;;;;;;22.70;14.70;;;-0.50;93.00;;;;;;6302791;28;20473;-62
2022/02/14 05:25:38;;;;;;;21.87;14.53;;;-0.40;93.10;;;;;;6303101;28;20520;-62
2022/02/14 05:28:42;;;;;;;21.10;14.37;;;-0.50;93.10;;;;;;6302686;28;20799;-62
2022/02/14 05:31:45;;;;;;;18.70;12.90;;;-0.50;92.90;;;;;;6302576;28;20791;-62
2022/02/14 05:34:48;;;;;;;19.60;14.07;;;-0.50;93.10;;;;;;6302791;28;21011;-62
2022/02/14 05:37:51;;;;;;;16.80;13.27;;;-0.50;93.10;;;;;;6298192;28;20481;-62
2022/02/14 05:40:55;;;;;;;21.63;14.27;;;-0.50;93.20;;;;;;6303092;28;20474;-63
2022/02/14 05:44:01;;;;;;;19.03;13.27;;;-0.50;93.20;;;;;;6303110;28;20469;-63
2022/02/14 05:47:05;;;;;;;19.13;14.50;;;-0.50;93.10;;;;;;6302999;28;20507;-62
2022/02/14 05:50:09;;;;;;;17.77;13.90;;;-0.50;93.30;;;;;;6304151;28;20476;-63
2022/02/14 05:53:12;;;;;;;15.97;12.80;;;-0.50;93.50;;;;;;6303587;28;20847;-64
2022/02/14 05:56:16;;;;;;;17.90;13.30;;;-0.50;93.50;;;;;;6303108;28;20480;-63
2022/02/14 05:59:20;;;;;;;17.63;14.17;;;-0.50;93.50;;;;;;6302217;28;20469;-63
2022/02/14 06:02:23;;;;;;;18.67;14.53;;;-0.50;93.60;;;;;;6302643;28;20492;-64
2022/02/14 06:05:26;;;;;;;17.47;14.80;;;-0.60;93.50;;;;;;6302879;28;20480;-64
2022/02/14 06:08:29;;;;;;;21.23;15.10;;;-0.60;93.60;;;;;;6302384;28;20472;-63
2022/02/14 06:11:33;;;;;;;23.23;15.07;;;-0.60;93.60;;;;;;6302534;28;20480;-62
2022/02/14 06:14:37;;;;;;;16.40;13.90;;;-0.60;93.50;;;;;;6302169;28;20481;-63
2022/02/14 06:17:40;;;;;;;18.57;14.00;;;-0.60;93.50;;;;;;6302270;28;21026;-63
2022/02/14 06:20:44;;;;;;;19.37;13.00;;;-0.60;93.40;;;;;;6302676;28;20492;-63
2022/02/14 06:23:48;;;;;;;21.20;14.37;;;-0.70;93.40;;;;;;6301003;28;20470;-63
2022/02/14 06:26:51;;;;;;;18.33;15.10;;;-0.60;93.60;;;;;;6302077;28;20499;-64
2022/02/14 06:29:56;;;;;;;21.20;13.73;;;-0.60;93.80;;;;;;6301252;28;20834;-63
2022/02/14 06:32:59;;;;;;;18.80;15.83;;;-0.60;93.80;;;;;;6301074;28;20484;-63
2022/02/14 06:36:02;;;;;;;22.20;15.17;;;-0.60;93.80;;;;;;6301950;28;20477;-62
2022/02/14 06:39:07;;;;;;;16.17;13.23;;;-0.60;93.90;;;;;;6301863;28;20466;-62
2022/02/14 06:42:10;;;;;;;18.03;13.63;;;-0.50;94.00;;;;;;6300896;28;20469;-62
2022/02/14 06:45:15;;;;;;;23.77;14.13;;;-0.50;94.00;;;;;;6302690;28;20469;-62
2022/02/14 06:48:19;;;;;;;19.10;14.70;;;-0.40;94.10;;;;;;6302570;28;20489;-62
2022/02/14 06:51:22;;;;;;;21.37;14.40;;;-0.40;93.90;;;;;;6300781;28;20481;-63
2022/02/14 06:54:25;;;;;;;24.07;15.83;;;-0.40;93.80;;;;;;6300650;28;20477;-62
2022/02/14 06:57:30;;;;;;;17.50;14.83;;;-0.30;93.80;;;;;;6300332;28;20469;-63
2022/02/14 07:00:34;;;;;;;21.17;15.60;;;-0.30;94.00;;;;;;6300438;28;20489;-62
2022/02/14 07:03:38;;;;;;;17.13;14.00;;;-0.20;94.00;;;;;;6300331;28;20480;-63
2022/02/14 07:06:41;;;;;;;22.50;15.43;;;-0.10;94.00;;;;;;6300118;28;20478;-62
2022/02/14 07:09:44;;;;;;;19.57;14.90;;;-0.10;94.10;;;;;;6300181;28;20512;-62
2022/02/14 07:12:48;;;;;;;26.77;15.67;;;-0.10;94.10;;;;;;6299965;28;20495;-62
2022/02/14 07:15:52;;;;;;;21.20;15.90;;;0.00;94.20;;;;;;6300025;28;20475;-62
2022/02/14 07:18:55;;;;;;;20.07;17.00;;;0.10;94.10;;;;;;6300564;28;20438;-62
2022/02/14 07:21:58;;;;;;;19.57;17.50;;;0.10;94.10;;;;;;6300151;28;20524;-62
2022/02/14 07:25:01;;;;;;;24.40;16.83;;;0.30;93.90;;;;;;6301844;28;20446;-62
2022/02/14 07:28:05;;;;;;;17.67;15.77;;;0.30;93.80;;;;;;6301970;28;20606;-62
2022/02/14 07:31:09;;;;;;;19.47;14.93;;;0.40;93.60;;;;;;6299804;28;20926;-62
2022/02/14 07:34:12;;;;;;;18.27;14.03;;;0.50;93.60;;;;;;6299975;28;20465;-62
2022/02/14 07:37:16;;;;;;;17.30;13.30;;;0.60;93.60;;;;;;6299542;28;20468;-62
2022/02/14 07:40:19;;;;;;;18.30;15.50;;;0.60;93.40;;;;;;6295442;28;20477;-63
2022/02/14 07:43:26;;;;;;;20.27;14.50;;;0.70;93.40;;;;;;6299406;28;20656;-63
2022/02/14 07:46:31;;;;;;;18.93;15.60;;;0.80;93.30;;;;;;6299814;28;20466;-63
2022/02/14 07:49:34;;;;;;;15.63;13.47;;;0.90;93.00;;;;;;6300767;28;20477;-63
2022/02/14 07:52:37;;;;;;;17.87;13.70;;;1.00;92.90;;;;;;6299761;28;20787;-63
2022/02/14 07:55:40;;;;;;;16.73;15.00;;;1.10;92.80;;;;;;6299575;28;20468;-63
2022/02/14 07:58:49;;;;;;;23.37;13.53;;;1.20;92.60;;;;;;6300186;28;20686;-63
2022/02/14 08:01:53;;;;;;;15.87;13.53;;;1.40;92.30;;;;;;6300011;28;20474;-61
2022/02/14 08:04:57;;;;;;;13.07;11.67;;;1.50;91.80;;;;;;6300413;28;20476;-61
2022/02/14 08:08:06;;;;;;;25.53;12.93;;;1.60;91.60;;;;;;6299605;28;20480;-62
2022/02/14 08:11:26;;;;;;;17.80;12.63;;;1.70;91.20;;;;;;6299210;28;20784;-64
2022/02/14 08:14:30;;;;;;;16.97;13.40;;;1.80;90.70;;;;;;6299327;28;20474;-62
2022/02/14 08:17:34;;;;;;;16.07;11.47;;;1.90;90.40;;;;;;6299727;28;20465;-63
2022/02/14 08:20:38;;;;;;;21.17;12.40;;;2.00;90.40;;;;;;6299374;28;20481;-62
2022/02/14 08:23:41;;;;;;;15.30;12.50;;;2.10;90.00;;;;;;6299372;28;20779;-63
2022/02/14 08:26:44;;;;;;;16.70;10.80;;;2.20;89.40;;;;;;6300602;28;20482;-62
2022/02/14 08:29:48;;;;;;;63.53;33.03;;;2.30;88.40;;;;;;6300588;28;20484;-62
2022/02/14 08:32:52;;;;;;;56.20;24.67;;;2.40;88.00;;;;;;6299509;28;20805;-62
2022/02/14 08:35:55;;;;;;;33.80;21.10;;;2.50;87.40;;;;;;6299258;28;20473;-63
2022/02/14 08:38:58;;;;;;;23.13;14.30;;;2.60;86.60;;;;;;6299538;28;20473;-62
2022/02/14 08:42:01;;;;;;;14.27;11.77;;;2.70;86.50;;;;;;6299000;28;20477;-62
2022/02/14 08:45:05;;;;;;;19.33;12.87;;;2.80;85.60;;;;;;6289023;28;20492;-62
2022/02/14 08:48:09;;;;;;;16.90;11.50;;;2.90;85.60;;;;;;6302019;28;21004;-62
2022/02/14 08:51:12;;;;;;;19.80;12.50;;;3.00;85.40;;;;;;6303671;28;20473;-62
2022/02/14 08:54:15;;;;;;;17.93;12.53;;;3.20;85.50;;;;;;6303529;28;20500;-62
2022/02/14 08:57:19;;;;;;;18.83;12.80;;;3.40;85.00;;;;;;6303416;28;20964;-62
2022/02/14 09:00:22;;;;;;;18.03;12.67;;;3.50;83.20;;;;;;6303327;28;20481;-63
2022/02/14 09:03:26;;;;;;;13.30;11.13;;;3.70;83.10;;;;;;6303377;28;20588;-63
2022/02/14 09:06:30;;;;;;;13.93;10.67;;;3.90;82.50;;;;;;6303347;28;20484;-63
2022/02/14 09:09:53;;;;;;;14.70;12.50;;;4.20;81.50;;;;;;6278106;28;20463;-62
2022/02/14 09:12:56;;;;;;;16.13;14.43;;;5.10;80.70;;;;;;6279382;28;20930;-63
2022/02/14 09:16:03;;;;;;;16.57;14.47;;;7.70;74.60;;;;;;6303583;28;20454;-62
2022/02/14 09:19:07;;;;;;;16.97;14.83;;;12.00;60.10;;;;;;6303364;28;20440;-62
2022/02/14 09:22:10;;;;;;;15.93;14.23;;;15.90;47.10;;;;;;6302732;28;20476;-63
2022/02/14 09:25:14;;;;;;;16.33;13.70;;;19.30;37.00;;;;;;6302982;28;20480;-63
2022/02/14 09:28:17;;;;;;;16.30;14.80;;;22.30;32.50;;;;;;6302524;28;20866;-63
2022/02/14 09:31:20;;;;;;;16.63;15.13;;;24.80;27.90;;;;;;6302761;28;20227;-63
2022/02/14 09:34:24;;;;;;;16.10;14.60;;;26.90;24.80;;;;;;6302841;28;20306;-63
2022/02/14 09:37:27;;;;;;;17.13;15.53;;;28.40;22.40;;;;;;6302978;28;20229;-63
2022/02/14 09:40:36;;;;;;;17.53;15.87;;;27.10;21.40;;;;;;6302516;28;20268;-63
2022/02/14 09:43:47;;;;;;;17.00;14.73;;;23.90;23.00;;;;;;6302376;28;20650;-63
2022/02/14 09:46:51;;;;;;;17.67;15.80;;;21.10;24.80;;;;;;6302721;28;20308;-63
2022/02/14 09:49:56;;;;;;;16.43;14.57;;;18.40;26.90;;;;;;6302145;28;20609;-62
2022/02/14 09:52:59;;;;;;;15.93;14.30;;;16.30;29.50;;;;;;6302939;28;20511;-62
2022/02/14 09:56:03;;;;;;;20.30;15.63;;;15.60;32.00;;;;;;6302049;28;20820;-63
2022/02/14 09:59:07;;;;;;;17.20;15.40;;;19.00;30.30;;;;;;6301604;28;20499;-63
2022/02/14 10:02:22;;;;;;;17.30;15.60;;;22.80;27.30;;;;;;6301858;28;20353;-64
2022/02/14 10:05:31;;;;;;;18.50;16.67;;;25.80;24.20;;;;;;6302541;28;20237;-63
2022/02/14 10:08:36;;;;;;;18.43;16.50;;;28.40;21.90;;;;;;6302326;28;20587;-63
2022/02/14 10:11:56;;;;;;;19.13;17.27;;;30.30;20.40;;;;;;6302899;28;20287;-64
2022/02/14 10:15:03;;;;;;;18.13;16.63;;;31.60;18.60;;;;;;6305006;28;20227;-63
2022/02/14 10:18:06;;;;;;;19.58;17.98;;;33.10;17.80;;;;;;6303236;28;20743;-63
2022/02/14 10:21:19;;;;;;;18.52;17.13;;;33.90;16.90;;;;;;6302535;28;20283;-63
2022/02/14 10:24:22;;;;;;;19.30;17.60;;;34.90;16.40;;;;;;6301819;28;20226;-63
2022/02/14 10:27:32;;;;;;;18.15;16.65;;;34.70;15.90;;;;;;6301945;28;20241;-63
2022/02/14 10:30:35;;;;;;;17.95;16.40;;;35.60;15.40;;;;;;6301343;28;20234;-64
2022/02/14 10:33:49;;;;;;;18.92;16.95;;;36.00;15.00;;;;;;6301644;28;20234;-63
2022/02/14 10:36:53;;;;;;;17.17;15.38;;;36.10;14.40;;;;;;6301286;28;20570;-63
2022/02/14 10:39:59;;;;;;;17.13;15.68;;;36.00;14.60;;;;;;6301396;28;20348;-63
2022/02/14 10:43:02;;;;;;;16.83;15.43;;;36.90;14.20;;;;;;6300972;28;20234;-62
2022/02/14 10:46:05;;;;;;;16.92;15.50;;;37.50;13.70;;;;;;6301601;28;20217;-62
2022/02/14 10:49:09;;;;;;;16.55;14.77;;;38.30;13.50;;;;;;6289949;28;20226;-62
2022/02/14 10:52:35;;;;;;;16.40;15.00;;;39.20;12.90;;;;;;6300868;28;20569;-62
2022/02/14 10:55:42;;;;;;;13.10;12.18;;;39.90;12.50;;;;;;6300677;28;20538;-62
2022/02/14 10:58:45;;;;;;;15.02;13.90;;;40.00;11.90;;;;;;6300599;28;20597;-63
2022/02/14 11:01:48;;;;;;;15.52;14.23;;;39.20;11.80;;;;;;6301370;28;20227;-63
2022/02/14 11:04:51;;;;;;;16.35;14.88;;;38.60;12.20;;;;;;6301325;28;20241;-62
2022/02/14 11:07:56;;;;;;;14.63;13.60;;;38.30;12.30;;;;;;6301225;28;20229;-66
2022/02/14 11:11:02;;;;;;;18.17;16.67;;;38.70;12.20;;;;;;6300461;28;20601;-64
2022/02/14 11:14:06;;;;;;;17.23;15.70;;;37.60;12.30;;;;;;6300300;28;20234;-63
2022/02/14 11:17:10;;;;;;;17.85;16.25;;;37.90;13.00;;;;;;6300273;28;20230;-63
2022/02/14 11:20:14;;;;;;;17.65;16.25;;;38.10;12.50;;;;;;6299930;28;20230;-62
2022/02/14 11:23:21;;;;;;;17.50;16.15;;;39.00;12.40;;;;;;6299918;28;20242;-63
2022/02/14 11:26:36;;;;;;;18.88;17.20;;;39.50;12.30;;;;;;6300366;28;20585;-63
2022/02/14 11:29:47;;;;;;;18.90;17.23;;;40.20;12.00;;;;;;6299860;28;20683;-62
2022/02/14 11:33:10;;;;;;;19.20;17.33;;;39.00;12.10;;;;;;6299828;28;20288;-62
2022/02/14 11:36:13;;;;;;;18.58;17.02;;;38.20;12.60;;;;;;6300384;28;20243;-63
2022/02/14 11:39:29;;;;;;;19.75;18.13;;;39.00;12.50;;;;;;6299786;28;20599;-63
2022/02/14 11:42:32;;;;;;;19.17;17.58;;;39.80;12.20;;;;;;6299720;28;20235;-63
2022/02/14 11:45:36;;;;;;;18.52;17.13;;;40.00;11.90;;;;;;6299955;28;20231;-63
2022/02/14 11:48:39;;;;;;;19.45;17.98;;;39.80;11.70;;;;;;6299533;28;20230;-63
2022/02/14 11:51:44;;;;;;;18.75;17.35;;;39.40;12.00;;;;;;6299245;28;20670;-63
2022/02/14 11:54:49;;;;;;;17.45;15.73;;;38.40;12.10;;;;;;6299306;28;20233;-63
2022/02/14 11:57:52;;;;;;;14.70;13.48;;;38.40;12.40;;;;;;6271697;28;20226;-64
2022/02/14 12:01:05;;;;;;;15.55;14.52;;;39.00;11.40;;;;;;6274796;28;20589;-63
2022/02/14 12:04:44;;;;;;;16.80;15.43;;;39.50;11.60;;;;;;6299450;28;20230;-63
2022/02/14 12:07:55;;;;;;;14.00;12.93;;;40.50;11.40;;;;;;6299753;28;20234;-63
2022/02/14 12:10:59;;;;;;;14.30;13.13;;;40.80;10.70;;;;;;6299543;28;20295;-63
2022/02/14 12:14:04;;;;;;;16.27;14.98;;;41.30;10.60;;;;;;6299280;28;20230;-63
2022/02/14 12:21:01;;;;;;;12.77;11.85;;;41.10;11.00;;;;;;6299838;28;20234;-63
2022/02/14 12:24:14;;;;;;;13.85;12.70;;;41.20;10.30;;;;;;6304381;28;20752;-64
2022/02/14 12:27:23;;;;;;;12.80;11.70;;;39.60;10.80;;;;;;6304329;28;20360;-63
2022/02/14 12:30:27;;;;;;;13.73;12.57;;;39.60;10.70;;;;;;6304512;28;20670;-63
2022/02/14 12:33:32;;;;;;;14.35;13.05;;;40.30;10.70;;;;;;6304171;28;20237;-63
2022/02/14 12:36:35;;;;;;;14.57;13.48;;;40.90;10.50;;;;;;6304239;28;20230;-63
2022/02/14 12:39:41;;;;;;;13.30;12.35;;;41.60;10.40;;;;;;6304195;28;20230;-63
2022/02/14 12:42:45;;;;;;;12.82;11.57;;;42.20;10.10;;;;;;6303479;28;20241;-63
2022/02/14 12:45:48;;;;;;;12.90;11.80;;;41.10;9.90;;;;;;6303753;28;20238;-63
2022/02/14 12:48:55;;;;;;;13.70;12.63;;;41.20;10.10;;;;;;6278639;28;20229;-63
2022/02/14 12:52:10;;;;;;;17.27;11.15;;;41.40;10.10;;;;;;6279872;28;20690;-63
2022/02/14 12:55:14;;;;;;;12.68;11.68;;;40.80;10.10;;;;;;6293695;28;20253;-63
2022/02/14 12:58:19;;;;;;;12.80;11.80;;;41.20;10.00;;;;;;6303726;28;20240;-63
2022/02/14 13:01:23;;;;;;;13.18;11.88;;;41.50;9.80;;;;;;6303231;28;20226;-63
2022/02/14 13:04:30;;;;;;;13.45;12.45;;;41.30;10.50;;;;;;6303413;28;20222;-62
2022/02/14 13:07:33;;;;;;;11.88;10.77;;;41.70;9.80;;;;;;6303404;28;20233;-62
2022/02/14 13:10:44;;;;;;;10.73;9.90;;;41.60;9.60;;;;;;6303604;28;20222;-62
2022/02/14 13:13:48;;;;;;;10.13;9.43;;;41.40;9.60;;;;;;6302697;28;20230;-62
2022/02/14 13:16:51;;;;;;;12.40;11.27;;;41.10;9.70;;;;;;6303310;28;20667;-64
2022/02/14 13:19:56;;;;;;;11.90;10.90;;;40.70;9.80;;;;;;6302784;28;20234;-63
2022/02/14 13:23:00;;;;;;;11.68;10.63;;;40.60;10.00;;;;;;6302695;28;20610;-62
2022/02/14 13:26:22;;;;;;;11.80;10.90;;;40.80;10.00;;;;;;6302755;28;20533;-62
2022/02/14 13:29:39;;;;;;;17.02;11.77;;;40.90;10.10;;;;;;6302955;28;20230;-63
2022/02/14 13:32:45;;;;;;;12.50;11.40;;;41.10;9.90;;;;;;6301293;28;20559;-63
2022/02/14 13:35:48;;;;;;;10.85;10.10;;;40.80;10.00;;;;;;6302878;28;20238;-63
2022/02/14 13:38:51;;;;;;;12.13;11.18;;;40.30;10.10;;;;;;6303940;28;20687;-63
2022/02/14 13:41:55;;;;;;;13.25;10.75;;;40.10;10.30;;;;;;6304923;28;20230;-63
2022/02/14 13:45:00;;;;;;;11.07;10.18;;;40.10;10.30;;;;;;6302810;28;20245;-63
2022/02/14 13:48:23;;;;;;;9.68;8.88;;;39.50;10.40;;;;;;6302398;28;20241;-63
2022/02/14 13:51:28;;;;;;;11.63;10.63;;;38.70;10.40;;;;;;6302962;28;20227;-62
2022/02/14 13:54:32;;;;;;;9.00;8.10;;;38.50;10.70;;;;;;6302657;28;20226;-63
2022/02/14 13:57:36;;;;;;;10.07;8.75;;;35.50;11.30;;;;;;6297044;28;20234;-64
2022/02/14 14:00:41;;;;;;;9.57;8.68;;;34.40;12.20;;;;;;6302220;28;20245;-63
2022/02/14 14:03:44;;;;;;;9.00;8.27;;;34.40;12.20;;;;;;6301853;28;20241;-63
2022/02/14 14:06:48;;;;;;;9.40;8.60;;;34.70;12.00;;;;;;6302189;28;20238;-64
2022/02/14 14:09:54;;;;;;;11.02;8.43;;;34.00;12.30;;;;;;6302401;28;20250;-65
2022/02/14 14:12:57;;;;;;;10.07;9.18;;;32.80;12.80;;;;;;6301867;28;20249;-62
2022/02/14 14:16:01;;;;;;;9.70;8.80;;;31.00;13.70;;;;;;6301813;28;20199;-65
2022/02/14 14:19:06;;;;;;;9.40;8.50;;;28.50;15.00;;;;;;6301450;28;20643;-64
2022/02/14 14:22:09;;;;;;;12.37;10.43;;;26.40;16.50;;;;;;6301374;28;20651;-64
2022/02/14 14:25:12;;;;;;;9.97;8.97;;;24.40;18.10;;;;;;6301998;28;20226;-63
2022/02/14 14:28:15;;;;;;;8.40;7.70;;;22.10;19.50;;;;;;6301703;28;20889;-63
2022/02/14 14:31:20;;;;;;;9.30;8.37;;;20.40;21.10;;;;;;6301356;28;20222;-62
2022/02/14 14:34:26;;;;;;;13.10;7.30;;;19.10;22.20;;;;;;6301171;28;20302;-63
2022/02/14 14:37:30;;;;;;;10.40;7.80;;;17.50;23.80;;;;;;6300996;28;20545;-63
2022/02/14 14:40:33;;;;;;;8.07;7.37;;;16.80;24.50;;;;;;6301103;28;20667;-62
2022/02/14 14:43:36;;;;;;;8.60;7.77;;;16.20;25.40;;;;;;6300964;28;20480;-62
2022/02/14 14:46:41;;;;;;;10.10;7.87;;;15.50;26.20;;;;;;6300921;28;20813;-62
2022/02/14 14:49:44;;;;;;;8.20;7.40;;;14.90;26.90;;;;;;6301098;28;20473;-63
2022/02/14 14:52:47;;;;;;;8.00;7.30;;;14.60;27.50;;;;;;6300723;28;20473;-63
2022/02/14 14:55:50;;;;;;;9.57;7.77;;;14.30;27.70;;;;;;6300643;28;20484;-63
2022/02/14 14:58:53;;;;;;;9.00;8.10;;;14.10;28.40;;;;;;6301112;28;20480;-63
2022/02/14 15:01:58;;;;;;;12.43;8.43;;;13.70;29.20;;;;;;6296056;28;20477;-63
2022/02/14 15:05:02;;;;;;;8.50;7.50;;;13.50;29.50;;;;;;6300825;28;20461;-62
2022/02/14 15:08:06;;;;;;;12.50;8.17;;;13.10;29.50;;;;;;6301154;28;20480;-63
2022/02/14 15:11:09;;;;;;;10.50;8.00;;;13.00;30.00;;;;;;6301786;28;20483;-63
2022/02/14 15:14:14;;;;;;;8.53;7.30;;;12.90;30.00;;;;;;6300138;28;20820;-63
2022/02/14 15:17:18;;;;;;;10.80;8.00;;;12.60;30.20;;;;;;6300483;28;20476;-63
2022/02/14 15:20:21;;;;;;;7.77;7.03;;;12.50;30.50;;;;;;6300629;28;20492;-63
2022/02/14 15:23:24;;;;;;;9.13;7.43;;;12.40;30.60;;;;;;6301003;28;20809;-63
2022/02/14 15:26:27;;;;;;;9.90;8.80;;;12.40;31.10;;;;;;6300127;28;20477;-62
2022/02/14 15:29:32;;;;;;;7.43;6.73;;;12.30;31.30;;;;;;6299938;28;20966;-63
2022/02/14 15:32:38;;;;;;;8.73;7.83;;;12.20;31.60;;;;;;6299688;28;20485;-63
2022/02/14 15:35:41;;;;;;;12.07;8.00;;;12.10;31.80;;;;;;6300008;28;20476;-62
2022/02/14 15:38:45;;;;;;;11.10;9.13;;;12.00;32.00;;;;;;6300340;28;20476;-62
2022/02/14 15:41:48;;;;;;;13.43;8.23;;;11.90;32.40;;;;;;6299731;28;20488;-63
2022/02/14 15:44:51;;;;;;;8.73;7.67;;;11.80;32.60;;;;;;6300192;28;20480;-62
2022/02/14 15:47:59;;;;;;;9.30;8.27;;;11.70;32.90;;;;;;6300053;28;20475;-62